Time;durP1;ratioP1;P1;durP2;ratioP2;P2;SDS_P1;SDS_P2;PMS_P1;PMS_P2;Temp;Humidity;BMP_temperature;BMP_pressure;BME280_temperature;BME280_humidity;BME280_pressure;Samples;Min_cycle;Max_cycle;Signal;HPM_P1;HPM_P2
2022/12/30 00:01:57;;;;;;;;;0.75;0.75;;;;;7.65;75.52;99339.59;5036839;28;8859;-60
2022/12/30 00:04:25;;;;;;;;;1.00;0.00;;;;;7.60;75.77;99337.31;5036905;28;8829;-59
2022/12/30 00:06:53;;;;;;;;;0.00;0.00;;;;;7.60;75.89;99339.94;5036252;28;8816;-60
2022/12/30 00:09:20;;;;;;;;;1.00;0.25;;;;;7.58;75.96;99354.28;5036277;28;8833;-59
2022/12/30 00:11:49;;;;;;;;;0.00;0.00;;;;;7.56;75.46;99358.81;5036546;28;8833;-59
2022/12/30 00:33:33;;;;;;;;;0.00;0.00;;;;;7.52;75.86;99375.94;5036514;28;8825;-60
2022/12/30 00:36:01;;;;;;;;;0.00;0.00;;;;;7.52;76.06;99376.78;5035700;28;8854;-59
2022/12/30 00:38:28;;;;;;;;;1.00;1.00;;;;;7.53;76.25;99374.97;5035451;28;8863;-59
2022/12/30 00:43:42;;;;;;;;;0.00;0.00;;;;;7.56;75.86;99377.38;5035774;28;8817;-60
2022/12/30 00:46:11;;;;;;;;;0.00;0.00;;;;;7.54;75.77;99374.84;5035638;28;8828;-59
2022/12/30 00:56:54;;;;;;;;;0.25;0.00;;;;;7.49;76.07;99398.19;5035886;28;8825;-60
2022/12/30 00:59:21;;;;;;;;;2.00;2.00;;;;;7.49;76.12;99402.66;5036039;28;8836;-60
2022/12/30 01:01:49;;;;;;;;;0.00;0.00;;;;;7.49;75.83;99402.66;5035599;28;8825;-60
2022/12/30 01:04:17;;;;;;;;;0.75;0.50;;;;;7.48;76.03;99385.06;5035527;28;8833;-60
2022/12/30 01:06:45;;;;;;;;;0.00;0.00;;;;;7.51;75.87;99392.78;5035432;28;8856;-59
2022/12/30 01:09:13;;;;;;;;;0.00;0.00;;;;;7.52;75.43;99387.38;5035024;28;8848;-59
2022/12/30 01:11:40;;;;;;;;;0.00;0.00;;;;;7.52;75.89;99402.41;5035609;28;8856;-60
2022/12/30 01:14:08;;;;;;;;;0.00;0.00;;;;;7.51;75.80;99393.63;5035712;28;8832;-59
2022/12/30 01:16:36;;;;;;;;;1.00;0.00;;;;;7.52;75.99;99402.41;5035910;28;8828;-59
2022/12/30 01:19:03;;;;;;;;;1.00;1.00;;;;;7.53;75.58;99398.81;5035514;28;9487;-60
2022/12/30 01:21:31;;;;;;;;;1.50;1.00;;;;;7.53;75.78;99394.38;5035202;28;8867;-60
2022/12/30 01:23:59;;;;;;;;;0.00;0.00;;;;;7.54;75.71;99400.50;5034986;28;8898;-59
2022/12/30 01:26:27;;;;;;;;;1.00;1.00;;;;;7.51;75.59;99403.38;5034804;28;8836;-59
2022/12/30 01:28:55;;;;;;;;;0.00;0.00;;;;;7.51;75.44;99406.03;5035598;28;8876;-60
2022/12/30 01:31:23;;;;;;;;;0.00;0.00;;;;;7.50;75.95;99405.19;5035280;28;8825;-59
2022/12/30 01:33:51;;;;;;;;;0.00;0.00;;;;;7.51;75.83;99413.97;5034972;28;8820;-59
2022/12/30 01:36:18;;;;;;;;;1.00;0.00;;;;;7.49;76.05;99406.13;5034947;28;9530;-60
2022/12/30 01:38:46;;;;;;;;;0.00;0.00;;;;;7.50;75.57;99397.22;5035026;28;8831;-60
2022/12/30 01:41:13;;;;;;;;;0.50;0.50;;;;;7.52;75.70;99416.53;5034800;28;8832;-60
2022/12/30 01:43:41;;;;;;;;;0.00;0.00;;;;;7.52;75.85;99413.00;5035369;28;8913;-60
2022/12/30 01:46:09;;;;;;;;;0.50;0.00;;;;;7.51;75.65;99419.28;5034782;28;8918;-59
2022/12/30 01:48:37;;;;;;;;;0.00;0.00;;;;;7.50;75.49;99422.88;5015538;28;8872;-60
2022/12/30 01:51:05;;;;;;;;;1.20;0.60;;;;;7.49;75.75;99426.50;5015683;28;8850;-60
2022/12/30 01:53:33;;;;;;;;;0.00;0.00;;;;;7.47;75.94;99431.03;5015267;28;8827;-60
2022/12/30 01:56:00;;;;;;;;;0.00;0.00;;;;;7.47;75.72;99439.84;5015390;28;8827;-59
2022/12/30 01:58:28;;;;;;;;;0.20;0.20;;;;;7.42;76.02;99436.69;5015311;28;8896;-59
2022/12/30 02:00:56;;;;;;;;;0.00;0.00;;;;;7.39;75.93;99444.03;5031182;28;8825;-59
2022/12/30 02:03:24;;;;;;;;;0.25;0.25;;;;;7.37;75.77;99443.31;5034977;28;8823;-59
2022/12/30 02:05:56;;;;;;;;;0.00;0.00;;;;;7.34;75.77;99435.59;5035340;28;8837;-60
2022/12/30 02:08:23;;;;;;;;;0.00;0.00;;;;;7.27;76.24;99429.88;5035226;28;8836;-60
2022/12/30 02:10:52;;;;;;;;;0.00;0.00;;;;;7.24;76.29;99435.44;5035060;28;8849;-59
2022/12/30 02:13:20;;;;;;;;;0.50;0.50;;;;;7.21;76.70;99437.47;5035144;28;8856;-60
2022/12/30 02:15:47;;;;;;;;;0.00;0.00;;;;;7.19;75.91;99428.78;5035170;28;8837;-59
2022/12/30 02:18:15;;;;;;;;;1.00;0.00;;;;;7.16;76.43;99419.28;5035251;28;8863;-59
2022/12/30 02:20:43;;;;;;;;;1.40;1.00;;;;;7.16;76.67;99431.66;5034798;28;8833;-60
2022/12/30 02:23:11;;;;;;;;;0.25;0.25;;;;;7.15;76.43;99440.56;5034721;28;8829;-59
2022/12/30 02:25:38;;;;;;;;;0.00;0.00;;;;;7.12;76.59;99424.91;5034679;28;8829;-59
2022/12/30 02:28:06;;;;;;;;;0.00;0.00;;;;;7.10;76.92;99426.78;5034632;28;8848;-59
2022/12/30 02:30:34;;;;;;;;;0.00;0.00;;;;;7.11;76.93;99420.53;5034581;28;8825;-60
2022/12/30 02:33:02;;;;;;;;;0.00;0.00;;;;;7.11;76.53;99418.75;5035846;28;8832;-60
2022/12/30 02:35:30;;;;;;;;;0.33;0.33;;;;;7.12;76.44;99411.66;5038291;28;8829;-60
2022/12/30 02:37:57;;;;;;;;;0.00;0.00;;;;;7.14;76.50;99421.16;5038529;28;8891;-59
2022/12/30 02:40:25;;;;;;;;;0.00;0.00;;;;;7.16;76.51;99423.69;5038329;28;8824;-60
2022/12/30 02:45:38;;;;;;;;;0.00;0.00;;;;;7.12;76.55;99430.19;5038146;28;8836;-60
2022/12/30 02:48:06;;;;;;;;;1.00;1.00;;;;;7.09;76.20;99425.13;5038788;28;8844;-60
2022/12/30 02:53:19;;;;;;;;;0.50;0.50;;;;;7.03;76.73;99426.41;5038216;28;8868;-60
2022/12/30 02:55:47;;;;;;;;;0.00;0.00;;;;;7.01;76.91;99430.13;5038323;28;8861;-60
2022/12/30 02:58:14;;;;;;;;;1.00;1.00;;;;;7.00;76.56;99436.38;5038103;28;8824;-60
2022/12/30 03:06:36;;;;;;;;;0.00;0.00;;;;;6.92;77.26;99438.75;4975878;28;8885;-60
2022/12/30 03:09:03;;;;;;;;;0.00;0.00;;;;;6.86;77.12;99433.88;5023991;28;8833;-60
2022/12/30 03:11:30;;;;;;;;;0.00;0.00;;;;;6.80;77.28;99444.91;5037908;28;8879;-60
2022/12/30 03:13:58;;;;;;;;;0.60;0.60;;;;;6.75;77.32;99439.13;5037620;28;8836;-59
2022/12/30 03:16:26;;;;;;;;;0.00;0.00;;;;;6.71;76.99;99443.78;5037508;28;8816;-60
2022/12/30 03:18:53;;;;;;;;;0.00;0.00;;;;;6.69;77.40;99442.22;5037259;28;8902;-60
2022/12/30 03:21:21;;;;;;;;;0.00;0.00;;;;;6.67;76.99;99434.38;5037633;28;8843;-60
2022/12/30 03:29:19;;;;;;;;;2.60;1.00;;;;;6.71;77.22;99435.00;5037234;28;8848;-60
2022/12/30 03:31:47;;;;;;;;;0.80;0.80;;;;;6.71;77.19;99430.56;5037212;28;8883;-60
2022/12/30 03:34:14;;;;;;;;;0.20;0.20;;;;;6.71;77.36;99429.72;5037230;28;8840;-59
2022/12/30 03:36:42;;;;;;;;;0.00;0.00;;;;;6.69;77.30;99434.28;5037677;28;8843;-60
2022/12/30 03:39:10;;;;;;;;;0.00;0.00;;;;;6.66;77.39;99424.75;5037495;28;9586;-60
2022/12/30 03:41:38;;;;;;;;;1.40;1.40;;;;;6.63;77.27;99437.34;5037176;28;8867;-60
2022/12/30 03:44:06;;;;;;;;;0.00;0.00;;;;;6.59;77.49;99428.78;5036975;28;8918;-60
2022/12/30 03:46:33;;;;;;;;;1.40;0.80;;;;;6.57;77.44;99432.50;5036918;28;8859;-59
2022/12/30 03:49:01;;;;;;;;;1.00;0.40;;;;;6.56;77.52;99441.38;5037325;28;9634;-58
2022/12/30 03:51:29;;;;;;;;;0.20;0.00;;;;;6.55;77.67;99450.28;5036899;28;8879;-59
2022/12/30 03:53:57;;;;;;;;;0.00;0.00;;;;;6.57;78.02;99445.72;5037239;28;8946;-58
2022/12/30 03:56:25;;;;;;;;;0.00;0.00;;;;;6.54;77.40;99448.59;5037121;28;8816;-59
2022/12/30 03:58:52;;;;;;;;;0.00;0.00;;;;;6.51;77.60;99452.31;5037107;28;8836;-59
2022/12/30 04:01:20;;;;;;;;;0.00;0.00;;;;;6.48;77.81;99444.59;5037076;28;8816;-57
2022/12/30 04:03:48;;;;;;;;;0.00;0.00;;;;;6.48;77.72;99451.66;5036877;28;8831;-59
2022/12/30 04:06:15;;;;;;;;;0.00;0.00;;;;;6.47;77.83;99448.19;5036853;28;8938;-58
2022/12/30 04:08:43;;;;;;;;;0.00;0.00;;;;;6.44;77.95;99439.63;5036914;28;8817;-57
2022/12/30 04:11:10;;;;;;;;;0.00;0.00;;;;;6.41;78.16;99439.84;5036948;28;8825;-60
2022/12/30 04:13:38;;;;;;;;;0.00;0.00;;;;;6.37;78.07;99433.91;5036758;28;8821;-59
2022/12/30 04:16:06;;;;;;;;;0.00;0.00;;;;;6.36;77.96;99431.41;5036744;28;9515;-57
2022/12/30 04:18:34;;;;;;;;;2.80;2.20;;;;;6.34;78.11;99435.94;5036754;28;8926;-59
2022/12/30 04:21:01;;;;;;;;;1.00;1.00;;;;;6.33;78.04;99429.81;5036512;28;8844;-59
2022/12/30 04:23:29;;;;;;;;;1.00;0.00;;;;;6.33;78.11;99434.25;5036354;28;8808;-60
2022/12/30 04:25:57;;;;;;;;;0.00;0.00;;;;;6.37;78.05;99430.44;5036530;28;8851;-59
2022/12/30 04:28:25;;;;;;;;;0.00;0.00;;;;;6.37;77.92;99435.72;5036417;28;8847;-59
2022/12/30 04:30:52;;;;;;;;;0.40;0.40;;;;;6.39;77.94;99428.53;5036885;28;8867;-57
2022/12/30 04:33:20;;;;;;;;;0.40;0.40;;;;;6.38;77.49;99438.25;5036156;28;8859;-56
2022/12/30 04:35:47;;;;;;;;;0.00;0.00;;;;;6.36;78.18;99439.34;5036250;28;8821;-57
2022/12/30 04:38:16;;;;;;;;;0.00;0.00;;;;;6.31;77.91;99436.16;5036292;28;8839;-58
2022/12/30 04:40:43;;;;;;;;;0.60;0.60;;;;;6.30;78.19;99440.59;5036054;28;8828;-59
2022/12/30 04:43:11;;;;;;;;;0.60;0.00;;;;;6.29;77.95;99438.06;5035903;28;8922;-58
2022/12/30 04:45:39;;;;;;;;;0.00;0.00;;;;;6.26;78.17;99443.56;5035817;28;8829;-58
2022/12/30 04:48:06;;;;;;;;;0.00;0.00;;;;;6.23;78.56;99443.78;5035742;28;8863;-58
2022/12/30 04:50:34;;;;;;;;;0.00;0.00;;;;;6.19;78.12;99447.56;5036115;28;8820;-57
2022/12/30 04:53:02;;;;;;;;;0.00;0.00;;;;;6.16;78.22;99443.34;5036101;28;8938;-57
2022/12/30 04:55:30;;;;;;;;;1.00;1.00;;;;;6.14;78.53;99439.16;5035365;28;8958;-58
2022/12/30 04:57:57;;;;;;;;;0.60;0.60;;;;;6.13;78.71;99448.00;5035742;28;8829;-58
2022/12/30 05:00:25;;;;;;;;;0.00;0.00;;;;;6.10;78.21;99446.44;5036187;28;9526;-58
2022/12/30 05:02:53;;;;;;;;;0.40;0.40;;;;;6.08;78.67;99450.13;5036434;28;8851;-57
2022/12/30 05:05:21;;;;;;;;;1.00;0.80;;;;;6.06;78.28;99454.69;5036002;28;8821;-58
2022/12/30 05:07:48;;;;;;;;;0.00;0.00;;;;;6.05;78.82;99450.34;5035978;28;8868;-59
2022/12/30 05:10:16;;;;;;;;;0.80;0.80;;;;;6.02;78.67;99442.63;5035971;28;8829;-58
2022/12/30 05:12:44;;;;;;;;;1.00;0.00;;;;;5.99;78.69;99441.03;5035823;28;9479;-57
2022/12/30 05:15:12;;;;;;;;;1.00;0.20;;;;;6.00;78.80;99453.28;5035597;28;8825;-59
2022/12/30 05:17:39;;;;;;;;;0.00;0.00;;;;;6.03;78.76;99452.25;5035608;28;8848;-58
2022/12/30 05:20:07;;;;;;;;;0.00;0.00;;;;;6.04;79.01;99453.94;5035691;28;8848;-59
2022/12/30 05:22:35;;;;;;;;;0.00;0.00;;;;;6.01;78.89;99457.63;5035382;28;8824;-59
2022/12/30 05:27:49;;;;;;;;;0.00;0.00;;;;;5.97;79.05;99461.44;5035674;28;8864;-57
2022/12/30 05:30:17;;;;;;;;;0.00;0.00;;;;;6.02;78.71;99455.84;5035270;28;8832;-57
2022/12/30 05:32:44;;;;;;;;;0.80;0.80;;;;;6.03;79.12;99446.97;5035343;28;8836;-58
2022/12/30 05:35:12;;;;;;;;;0.40;0.40;;;;;6.04;78.72;99448.66;5035424;28;8821;-58
2022/12/30 05:37:40;;;;;;;;;1.00;1.00;;;;;6.02;79.00;99456.69;5035725;28;8824;-59
2022/12/30 05:40:07;;;;;;;;;0.80;0.80;;;;;6.01;78.41;99456.78;5035869;28;8890;-58
2022/12/30 05:42:35;;;;;;;;;0.60;0.40;;;;;6.03;79.21;99457.53;5035519;28;8832;-57
2022/12/30 05:45:02;;;;;;;;;0.00;0.00;;;;;6.06;78.81;99457.34;5035095;28;8859;-59
2022/12/30 05:47:30;;;;;;;;;3.00;1.00;;;;;6.07;78.63;99453.75;5035370;28;8856;-59
2022/12/30 05:49:58;;;;;;;;;0.40;0.00;;;;;6.10;78.88;99450.88;5035539;28;8821;-59
2022/12/30 05:52:27;;;;;;;;;0.00;0.00;;;;;6.14;78.84;99444.44;5035517;28;8843;-59
2022/12/30 05:54:55;;;;;;;;;0.20;0.20;;;;;6.18;78.72;99445.91;5035419;28;8871;-59
2022/12/30 05:57:22;;;;;;;;;0.00;0.00;;;;;6.22;78.75;99444.75;5035556;28;9502;-59
2022/12/30 05:59:50;;;;;;;;;0.00;0.00;;;;;6.25;78.56;99440.09;5035526;28;9510;-59
2022/12/30 06:02:18;;;;;;;;;0.40;0.40;;;;;6.26;78.53;99435.63;5035473;28;8820;-59
2022/12/30 06:04:46;;;;;;;;;0.60;0.60;;;;;6.27;78.14;99442.59;5035405;28;8847;-58
2022/12/30 06:07:13;;;;;;;;;1.00;1.00;;;;;6.27;78.47;99454.03;5036575;28;8837;-58
2022/12/30 06:09:41;;;;;;;;;0.00;0.00;;;;;6.29;78.35;99443.38;5038409;28;8840;-57
2022/12/30 06:12:09;;;;;;;;;0.40;0.00;;;;;6.29;78.64;99446.00;5038770;28;8829;-57
2022/12/30 06:14:36;;;;;;;;;0.60;0.00;;;;;6.29;78.65;99446.00;5038757;28;8825;-58
2022/12/30 06:17:11;;;;;;;;;2.60;0.80;;;;;6.26;78.45;99439.13;5039031;28;9522;-59
2022/12/30 06:19:39;;;;;;;;;1.00;0.00;;;;;6.26;78.84;99441.78;5038599;28;8841;-59
2022/12/30 06:22:07;;;;;;;;;0.60;0.60;;;;;6.25;78.72;99447.16;5038934;28;8832;-59
2022/12/30 06:24:34;;;;;;;;;1.00;1.00;;;;;6.23;79.05;99444.63;5038676;28;8832;-59
2022/12/30 06:27:02;;;;;;;;;0.00;0.00;;;;;6.23;78.50;99439.31;5038033;28;9552;-59
2022/12/30 06:29:30;;;;;;;;;0.00;0.00;;;;;6.22;78.80;99435.00;5038692;28;9541;-59
2022/12/30 06:31:57;;;;;;;;;0.00;0.00;;;;;6.22;78.93;99444.75;5038354;28;8852;-59
2022/12/30 06:34:25;;;;;;;;;0.80;0.80;;;;;6.24;78.85;99450.75;5037348;28;9533;-60
2022/12/30 06:36:53;;;;;;;;;0.40;0.40;;;;;6.27;78.52;99429.38;5037398;28;8902;-60
2022/12/30 06:39:20;;;;;;;;;0.20;0.20;;;;;6.28;78.70;99444.28;5037441;28;8847;-59
2022/12/30 06:41:48;;;;;;;;;0.00;0.00;;;;;6.31;78.51;99430.88;5037661;28;8849;-59
2022/12/30 06:44:16;;;;;;;;;0.00;0.00;;;;;6.33;78.57;99429.81;5037234;28;8847;-59
2022/12/30 06:46:44;;;;;;;;;0.40;0.40;;;;;6.35;78.53;99421.75;5037151;28;8856;-59
2022/12/30 06:49:11;;;;;;;;;0.40;0.00;;;;;6.35;78.08;99434.97;5037957;28;8852;-60
2022/12/30 06:51:39;;;;;;;;;0.20;0.00;;;;;6.32;78.24;99421.97;5038077;28;9522;-59
2022/12/30 06:54:07;;;;;;;;;1.00;1.00;;;;;6.33;78.65;99431.59;5037862;28;8836;-59
2022/12/30 06:56:35;;;;;;;;;3.00;3.00;;;;;6.32;78.36;99436.06;5037659;28;8852;-60
2022/12/30 06:59:02;;;;;;;;;1.00;1.00;;;;;6.34;78.58;99420.06;5037812;28;8851;-59
2022/12/30 07:01:30;;;;;;;;;0.00;0.00;;;;;6.36;78.70;99434.03;5037332;28;8821;-59
2022/12/30 07:03:58;;;;;;;;;1.00;0.80;;;;;6.36;78.38;99420.81;5037719;28;8843;-59
2022/12/30 07:06:26;;;;;;;;;0.20;0.20;;;;;6.36;78.21;99426.13;5036812;28;9011;-59
2022/12/30 07:08:53;;;;;;;;;0.00;0.00;;;;;6.34;78.04;99409.50;5037183;28;8825;-59
2022/12/30 07:11:21;;;;;;;;;0.00;0.00;;;;;6.36;78.68;99418.19;5037350;28;8828;-58
2022/12/30 07:13:49;;;;;;;;;1.40;1.40;;;;;6.30;78.50;99419.44;5037384;28;8829;-58
2022/12/30 07:16:17;;;;;;;;;0.80;0.80;;;;;6.31;78.69;99412.38;5037667;28;8921;-58
2022/12/30 07:18:45;;;;;;;;;0.00;0.00;;;;;6.30;78.54;99414.16;5035879;28;8853;-59
2022/12/30 07:21:12;;;;;;;;;0.00;0.00;;;;;6.30;78.98;99410.69;5036477;28;8829;-59
2022/12/30 07:23:40;;;;;;;;;0.00;0.00;;;;;6.29;78.63;99403.72;5036998;28;8868;-58
2022/12/30 07:26:07;;;;;;;;;0.60;0.60;;;;;6.32;78.51;99392.91;5037011;28;8855;-57
2022/12/30 07:28:35;;;;;;;;;0.60;0.00;;;;;6.37;78.66;99396.06;5037023;28;8832;-59
2022/12/30 07:31:03;;;;;;;;;1.00;1.00;;;;;6.37;78.46;99386.31;5036969;28;8833;-59
2022/12/30 07:33:32;;;;;;;;;1.00;1.00;;;;;6.38;78.60;99373.97;5036953;28;8860;-59
2022/12/30 07:35:59;;;;;;;;;0.00;0.00;;;;;6.39;78.18;99383.59;5037243;28;8844;-59
2022/12/30 07:38:27;;;;;;;;;0.00;0.00;;;;;6.40;78.40;99378.19;5036839;28;8836;-59
2022/12/30 07:40:54;;;;;;;;;0.00;0.00;;;;;6.44;78.26;99381.47;5036691;28;8824;-59
2022/12/30 07:43:22;;;;;;;;;0.00;0.00;;;;;6.49;78.58;99358.16;5036767;28;8908;-58
2022/12/30 07:45:50;;;;;;;;;0.00;0.00;;;;;6.54;78.56;99374.53;5036203;28;8845;-59
2022/12/30 07:48:17;;;;;;;;;0.00;0.00;;;;;6.59;77.94;99351.25;5036440;28;8859;-59
2022/12/30 07:50:45;;;;;;;;;1.40;1.40;;;;;6.64;78.04;99354.41;5036080;28;8816;-59
2022/12/30 07:53:12;;;;;;;;;0.00;0.00;;;;;6.65;77.88;99364.88;5035891;28;8812;-59
2022/12/30 07:55:40;;;;;;;;;0.60;0.20;;;;;6.69;77.84;99350.44;5035946;28;8859;-59
2022/12/30 07:58:08;;;;;;;;;0.80;0.80;;;;;6.72;77.71;99352.88;5035868;28;8978;-59
2022/12/30 08:00:36;;;;;;;;;0.00;0.00;;;;;6.75;77.74;99347.34;5035941;28;8839;-57
2022/12/30 08:03:03;;;;;;;;;0.40;0.40;;;;;6.81;77.59;99354.03;5035639;28;8837;-58
2022/12/30 08:05:31;;;;;;;;;0.00;0.00;;;;;6.84;77.63;99353.78;5036292;28;8998;-59
2022/12/30 08:07:59;;;;;;;;;0.00;0.00;;;;;6.89;77.58;99346.38;5035404;28;8844;-58
2022/12/30 08:10:27;;;;;;;;;0.00;0.00;;;;;6.93;77.55;99347.81;5034906;28;8871;-59
2022/12/30 08:12:55;;;;;;;;;0.00;0.00;;;;;6.96;76.71;99348.41;5034920;28;8855;-59
2022/12/30 08:15:22;;;;;;;;;0.20;0.00;;;;;6.98;77.25;99345.66;5035201;28;9595;-59
2022/12/30 08:17:50;;;;;;;;;0.40;0.40;;;;;7.01;77.63;99345.44;5035222;28;8857;-59
2022/12/30 08:20:18;;;;;;;;;0.80;0.00;;;;;7.04;77.22;99338.09;5035141;28;8848;-59
2022/12/30 08:22:46;;;;;;;;;0.00;0.00;;;;;7.10;77.23;99342.09;5033964;28;8844;-59
2022/12/30 08:25:14;;;;;;;;;0.80;0.80;;;;;7.15;76.92;99335.50;5032734;28;8848;-59
2022/12/30 08:27:42;;;;;;;;;0.00;0.00;;;;;7.19;76.85;99339.59;5032718;28;8833;-57
2022/12/30 08:30:09;;;;;;;;;0.00;0.00;;;;;7.23;76.56;99345.50;5032638;28;8849;-59
2022/12/30 08:32:37;;;;;;;;;0.00;0.00;;;;;7.27;76.62;99333.75;5033691;28;8845;-59
2022/12/30 08:35:07;;;;;;;;;0.25;0.25;;;;;7.30;76.58;99338.78;5032822;28;8825;-59
2022/12/30 08:37:35;;;;;;;;;0.00;0.00;;;;;7.35;76.32;99326.06;5033778;28;8854;-58
2022/12/30 08:40:03;;;;;;;;;0.00;0.00;;;;;7.42;76.35;99321.97;5033903;28;8824;-60
2022/12/30 08:42:30;;;;;;;;;0.00;0.00;;;;;7.46;76.42;99328.72;5032824;28;9018;-58
2022/12/30 08:44:58;;;;;;;;;0.00;0.00;;;;;7.49;76.42;99312.59;5034523;28;8824;-58
2022/12/30 08:47:26;;;;;;;;;0.00;0.00;;;;;7.54;76.38;99297.19;5034101;28;8987;-57
2022/12/30 08:49:54;;;;;;;;;0.00;0.00;;;;;7.59;76.04;99293.19;5033404;28;8966;-59
2022/12/30 08:52:22;;;;;;;;;1.00;1.00;;;;;7.65;76.31;99291.91;5033360;28;9562;-58
2022/12/30 08:54:49;;;;;;;;;0.00;0.00;;;;;7.69;75.96;99289.72;5033274;28;9600;-59
2022/12/30 08:57:17;;;;;;;;;0.00;0.00;;;;;7.73;75.71;99288.53;5032962;28;8894;-58
2022/12/30 08:59:46;;;;;;;;;2.50;1.00;;;;;7.79;75.65;99266.00;5032678;28;8833;-59
2022/12/30 09:02:14;;;;;;;;;0.00;0.00;;;;;7.83;75.90;99275.41;5033547;28;8863;-59
2022/12/30 09:04:42;;;;;;;;;1.00;0.00;;;;;7.89;75.21;99262.50;5034003;28;8848;-59
2022/12/30 09:07:10;;;;;;;;;0.00;0.00;;;;;7.94;75.37;99262.97;5033869;28;8844;-59
2022/12/30 09:09:58;;;;;;;;;0.25;0.25;;;;;7.99;74.95;99255.47;5033017;28;8853;-59
2022/12/30 09:12:26;;;;;;;;;0.00;0.00;;;;;8.05;74.86;99276.22;5032708;28;8824;-59
2022/12/30 09:14:54;;;;;;;;;0.00;0.00;;;;;8.09;75.12;99277.66;5032568;28;8925;-59
2022/12/30 09:17:21;;;;;;;;;0.50;0.50;;;;;8.15;74.74;99273.66;5031241;28;8872;-60
2022/12/30 09:19:49;;;;;;;;;0.00;0.00;;;;;8.19;74.69;99268.03;5029611;28;8836;-60
2022/12/30 09:22:17;;;;;;;;;0.00;0.00;;;;;8.24;74.29;99246.44;5029758;28;9158;-58
2022/12/30 09:24:45;;;;;;;;;0.00;0.00;;;;;8.28;74.16;99251.38;5031302;28;8836;-57
2022/12/30 09:27:13;;;;;;;;;0.00;0.00;;;;;8.34;74.66;99250.00;5031200;28;8870;-60
2022/12/30 09:29:41;;;;;;;;;1.50;0.50;;;;;8.38;74.02;99257.59;5030838;28;8848;-59
2022/12/30 09:32:09;;;;;;;;;1.00;0.25;;;;;8.43;73.84;99246.63;5032150;28;8833;-57
2022/12/30 09:34:36;;;;;;;;;0.00;0.00;;;;;8.45;74.46;99237.56;5033396;28;8963;-59
2022/12/30 09:37:04;;;;;;;;;0.00;0.00;;;;;8.51;73.71;99242.34;5033148;28;8863;-58
2022/12/30 09:39:32;;;;;;;;;1.00;1.00;;;;;8.58;73.91;99248.03;5033136;28;8906;-59
2022/12/30 09:44:46;;;;;;;;;2.50;1.00;;;;;8.70;73.50;99223.97;5038657;28;8856;-57
2022/12/30 09:47:14;;;;;;;;;1.00;0.75;;;;;8.74;73.35;99220.06;5038916;28;8852;-59
2022/12/30 09:49:49;;;;;;;;;0.00;0.00;;;;;8.78;72.75;99232.13;5038068;28;8904;-59
2022/12/30 09:52:17;;;;;;;;;0.00;0.00;;;;;8.82;73.05;99203.50;5037176;28;8836;-60
2022/12/30 09:54:45;;;;;;;;;0.00;0.00;;;;;8.84;72.95;99202.41;5037568;28;8867;-57
2022/12/30 09:57:31;;;;;;;;;0.00;0.00;;;;;8.86;72.79;99205.78;5037156;28;8848;-59
2022/12/30 09:59:59;;;;;;;;;0.00;0.00;;;;;8.88;72.77;99187.91;5036866;28;8840;-57
2022/12/30 10:02:27;;;;;;;;;0.00;0.00;;;;;8.92;72.42;99201.75;5036439;28;8847;-59
2022/12/30 10:04:55;;;;;;;;;0.00;0.00;;;;;8.94;71.98;99186.53;5036427;28;8832;-57
2022/12/30 10:07:24;;;;;;;;;0.00;0.00;;;;;8.95;72.24;99162.50;5036882;28;8852;-58
2022/12/30 10:09:52;;;;;;;;;0.75;0.75;;;;;8.98;71.63;99164.88;5037181;28;9689;-57
2022/12/30 10:12:19;;;;;;;;;0.50;0.25;;;;;9.02;71.92;99137.13;5037032;28;8824;-58
2022/12/30 10:14:47;;;;;;;;;0.25;0.25;;;;;9.08;71.80;99130.41;5036398;28;9621;-59
2022/12/30 10:17:15;;;;;;;;;0.00;0.00;;;;;9.13;71.08;99134.34;5036005;28;8848;-59
2022/12/30 10:19:43;;;;;;;;;0.00;0.00;;;;;9.19;70.86;99117.06;5037250;28;8852;-59
2022/12/30 10:22:13;;;;;;;;;0.25;0.00;;;;;9.24;70.72;99109.53;5036687;28;9635;-59
2022/12/30 10:24:41;;;;;;;;;1.00;1.00;;;;;9.26;70.55;99119.03;5036245;28;8866;-59
2022/12/30 10:27:09;;;;;;;;;0.75;0.50;;;;;9.30;70.24;99115.16;5036315;28;8833;-59
2022/12/30 10:29:37;;;;;;;;;0.00;0.00;;;;;9.36;70.03;99109.31;5033461;28;8828;-59
2022/12/30 10:32:05;;;;;;;;;0.00;0.00;;;;;9.42;69.72;99086.66;5032528;28;8987;-59
2022/12/30 10:34:33;;;;;;;;;0.00;0.00;;;;;9.50;69.71;99085.00;5033061;28;9518;-59
2022/12/30 10:37:01;;;;;;;;;0.00;0.00;;;;;9.62;69.17;99062.66;5032760;28;8998;-60
2022/12/30 10:39:29;;;;;;;;;0.00;0.00;;;;;9.77;68.50;99084.34;5032769;28;8832;-60
2022/12/30 10:41:57;;;;;;;;;4.00;3.00;;;;;9.86;68.65;99062.25;5033397;28;8852;-59
2022/12/30 10:44:26;;;;;;;;;0.75;0.75;;;;;9.95;67.74;99056.94;5033821;28;8845;-59
2022/12/30 10:46:53;;;;;;;;;1.00;1.00;;;;;10.10;67.51;99042.25;5034554;28;8861;-60
2022/12/30 10:49:21;;;;;;;;;1.00;1.00;;;;;10.38;67.09;99045.84;5034835;28;8856;-59
2022/12/30 10:51:50;;;;;;;;;1.00;1.00;;;;;10.47;66.87;99035.19;5034787;28;8824;-59
2022/12/30 10:54:17;;;;;;;;;0.00;0.00;;;;;10.51;66.52;99043.75;5034421;28;8845;-59
2022/12/30 10:56:46;;;;;;;;;0.25;0.25;;;;;10.61;66.31;99042.72;5035437;28;8833;-59
2022/12/30 10:59:14;;;;;;;;;1.00;1.00;;;;;10.81;65.33;99044.38;5034011;28;8836;-59
2022/12/30 11:01:42;;;;;;;;;1.00;1.00;;;;;11.08;65.08;99024.91;5034445;28;9522;-59
2022/12/30 11:04:10;;;;;;;;;2.00;2.00;;;;;11.25;64.46;99024.97;5034216;28;8857;-59
2022/12/30 11:06:38;;;;;;;;;2.00;2.00;;;;;11.36;64.56;98994.59;5033785;28;8836;-60
2022/12/30 11:09:06;;;;;;;;;0.00;0.00;;;;;11.41;64.43;99000.31;5034853;28;9542;-60
2022/12/30 11:14:54;;;;;;;;;1.00;1.00;;;;;11.43;63.65;98998.31;5034763;28;8856;-58
2022/12/30 11:17:22;;;;;;;;;0.00;0.00;;;;;11.35;63.45;99001.75;5032484;28;8860;-58
2022/12/30 11:19:50;;;;;;;;;6.00;5.25;;;;;11.16;63.62;99001.03;5032131;28;8852;-59
2022/12/30 11:22:18;;;;;;;;;2.00;1.50;;;;;10.99;64.13;98986.66;5032300;28;9726;-57
2022/12/30 11:24:46;;;;;;;;;0.00;0.00;;;;;10.86;64.80;98994.16;5033431;28;8878;-57
2022/12/30 11:27:15;;;;;;;;;0.50;0.50;;;;;10.72;65.04;98997.31;5033758;28;8836;-59
2022/12/30 11:29:43;;;;;;;;;1.00;0.00;;;;;10.61;64.91;98986.00;5034257;28;9522;-59
2022/12/30 11:32:11;;;;;;;;;3.00;3.00;;;;;10.48;65.50;98983.66;5035348;28;8878;-58
2022/12/30 11:34:39;;;;;;;;;1.50;1.50;;;;;10.38;65.27;98985.50;5035353;28;8849;-59
2022/12/30 11:37:06;;;;;;;;;3.00;3.00;;;;;10.29;65.91;98981.06;5034567;28;8848;-59
2022/12/30 11:39:35;;;;;;;;;0.50;0.50;;;;;10.20;65.56;99000.53;5034096;28;8903;-56
2022/12/30 11:42:03;;;;;;;;;1.00;1.00;;;;;10.12;66.12;98978.28;5034513;28;8848;-57
2022/12/30 11:44:31;;;;;;;;;0.00;0.00;;;;;10.05;66.29;98970.03;5031922;28;9121;-56
2022/12/30 11:46:59;;;;;;;;;3.00;3.00;;;;;9.99;66.28;98969.72;5033347;28;8848;-58
2022/12/30 11:49:27;;;;;;;;;3.00;3.00;;;;;9.95;66.41;98947.06;5031541;28;8863;-58
2022/12/30 11:51:55;;;;;;;;;0.00;0.00;;;;;9.91;66.56;98948.31;5031633;28;8863;-58
2022/12/30 11:54:23;;;;;;;;;0.00;0.00;;;;;9.88;66.66;98952.09;5031951;28;8828;-59
2022/12/30 11:56:51;;;;;;;;;0.25;0.00;;;;;9.87;66.41;98923.84;5031404;28;8915;-59
2022/12/30 11:59:19;;;;;;;;;1.00;1.00;;;;;9.85;66.63;98931.13;5033012;28;8852;-58
2022/12/30 12:01:46;;;;;;;;;4.50;3.00;;;;;9.84;66.92;98934.78;5034043;28;8840;-57
2022/12/30 12:04:15;;;;;;;;;0.00;0.00;;;;;9.82;66.76;98922.59;5034005;28;8867;-58
2022/12/30 12:06:43;;;;;;;;;0.00;0.00;;;;;9.81;66.96;98928.91;5033438;28;8824;-56
2022/12/30 12:09:14;;;;;;;;;0.75;0.75;;;;;9.77;66.37;98904.41;5033257;28;8836;-58
2022/12/30 12:11:42;;;;;;;;;1.00;1.00;;;;;9.75;66.58;98866.50;5032643;28;8836;-59
2022/12/30 12:14:10;;;;;;;;;0.50;0.00;;;;;9.73;66.38;98888.91;5033600;28;8930;-58
2022/12/30 12:16:38;;;;;;;;;0.00;0.00;;;;;9.69;66.71;98888.34;5033174;28;8852;-58
2022/12/30 12:19:06;;;;;;;;;0.00;0.00;;;;;9.69;66.74;98871.53;5032344;28;8914;-58
2022/12/30 12:21:34;;;;;;;;;1.00;1.00;;;;;9.68;67.16;98868.06;5032850;28;8874;-59
2022/12/30 12:24:02;;;;;;;;;1.00;0.50;;;;;9.67;66.75;98863.72;5032740;28;9215;-58
2022/12/30 12:26:30;;;;;;;;;0.75;0.00;;;;;9.67;67.11;98857.56;5032459;28;8854;-56
2022/12/30 12:28:58;;;;;;;;;2.50;2.50;;;;;9.68;67.03;98841.47;5031536;28;8870;-59
2022/12/30 12:31:26;;;;;;;;;3.50;3.00;;;;;9.67;67.46;98818.53;5032158;28;8844;-59
2022/12/30 12:33:54;;;;;;;;;2.50;1.00;;;;;9.68;67.36;98819.38;5032236;28;8856;-58
2022/12/30 12:36:22;;;;;;;;;0.00;0.00;;;;;9.68;67.46;98814.03;5031937;28;9199;-58
2022/12/30 12:38:50;;;;;;;;;0.75;0.00;;;;;9.69;67.26;98803.28;5032662;28;8844;-58
2022/12/30 12:41:18;;;;;;;;;1.00;1.00;;;;;9.71;67.35;98803.16;5032353;28;8841;-56
2022/12/30 12:43:46;;;;;;;;;3.00;3.00;;;;;9.74;67.50;98784.25;5033198;28;8860;-58
2022/12/30 12:46:15;;;;;;;;;0.75;0.00;;;;;9.76;67.13;98776.94;5033047;28;8878;-57
2022/12/30 12:48:43;;;;;;;;;1.00;1.00;;;;;9.79;67.27;98764.19;5032513;28;8955;-59